sensor_id;sensor_type;location;lat;lon;timestamp;P1;durP1;ratioP1;P2;durP2;ratioP2
78489;SDS011;67776;52.012;4.736;2023-05-02T00:00:17;21.80;;;9.70;;
78489;SDS011;67776;52.012;4.736;2023-05-02T00:02:42;22.30;;;9.43;;
78489;SDS011;67776;52.012;4.736;2023-05-02T00:05:08;24.95;;;11.23;;
78489;SDS011;67776;52.012;4.736;2023-05-02T00:07:33;25.37;;;11.37;;
78489;SDS011;67776;52.012;4.736;2023-05-02T00:10:00;25.35;;;10.85;;
78489;SDS011;67776;52.012;4.736;2023-05-02T00:12:26;25.03;;;12.27;;
78489;SDS011;67776;52.012;4.736;2023-05-02T00:14:52;23.52;;;10.98;;
78489;SDS011;67776;52.012;4.736;2023-05-02T00:17:18;26.47;;;11.57;;
78489;SDS011;67776;52.012;4.736;2023-05-02T00:19:44;29.35;;;12.40;;
78489;SDS011;67776;52.012;4.736;2023-05-02T00:22:10;26.20;;;12.93;;
78489;SDS011;67776;52.012;4.736;2023-05-02T00:24:35;28.35;;;12.63;;
78489;SDS011;67776;52.012;4.736;2023-05-02T00:27:00;26.83;;;12.60;;
78489;SDS011;67776;52.012;4.736;2023-05-02T00:29:27;29.40;;;13.07;;
78489;SDS011;67776;52.012;4.736;2023-05-02T00:31:52;25.23;;;11.85;;
78489;SDS011;67776;52.012;4.736;2023-05-02T00:34:18;24.10;;;11.40;;
78489;SDS011;67776;52.012;4.736;2023-05-02T00:36:43;23.98;;;10.13;;
78489;SDS011;67776;52.012;4.736;2023-05-02T00:39:09;24.33;;;9.93;;
78489;SDS011;67776;52.012;4.736;2023-05-02T00:41:34;20.27;;;9.53;;
78489;SDS011;67776;52.012;4.736;2023-05-02T00:44:00;13.40;;;6.80;;
78489;SDS011;67776;52.012;4.736;2023-05-02T00:46:26;13.97;;;6.17;;
78489;SDS011;67776;52.012;4.736;2023-05-02T00:48:51;11.77;;;5.90;;
78489;SDS011;67776;52.012;4.736;2023-05-02T00:51:17;13.65;;;5.70;;
78489;SDS011;67776;52.012;4.736;2023-05-02T00:53:42;15.30;;;6.67;;
78489;SDS011;67776;52.012;4.736;2023-05-02T00:56:08;12.65;;;6.15;;
78489;SDS011;67776;52.012;4.736;2023-05-02T00:58:33;15.00;;;6.00;;
78489;SDS011;67776;52.012;4.736;2023-05-02T01:01:07;13.30;;;5.70;;
78489;SDS011;67776;52.012;4.736;2023-05-02T01:11:47;19.17;;;5.97;;
78489;SDS011;67776;52.012;4.736;2023-05-02T01:14:17;20.27;;;6.15;;
78489;SDS011;67776;52.012;4.736;2023-05-02T01:16:45;14.68;;;4.82;;
78489;SDS011;67776;52.012;4.736;2023-05-02T01:19:13;16.83;;;5.37;;
78489;SDS011;67776;52.012;4.736;2023-05-02T01:21:46;11.43;;;4.38;;
78489;SDS011;67776;52.012;4.736;2023-05-02T01:24:21;11.45;;;4.00;;
78489;SDS011;67776;52.012;4.736;2023-05-02T01:29:33;12.32;;;4.32;;
78489;SDS011;67776;52.012;4.736;2023-05-02T01:32:01;17.00;;;4.00;;
78489;SDS011;67776;52.012;4.736;2023-05-02T01:34:28;13.27;;;3.90;;
78489;SDS011;67776;52.012;4.736;2023-05-02T01:36:54;12.00;;;3.80;;
78489;SDS011;67776;52.012;4.736;2023-05-02T01:39:23;14.02;;;4.13;;
78489;SDS011;67776;52.012;4.736;2023-05-02T01:41:50;11.68;;;4.57;;
78489;SDS011;67776;52.012;4.736;2023-05-02T01:44:17;9.20;;;4.03;;
78489;SDS011;67776;52.012;4.736;2023-05-02T01:46:45;16.90;;;4.60;;
78489;SDS011;67776;52.012;4.736;2023-05-02T01:49:12;13.80;;;4.45;;
78489;SDS011;67776;52.012;4.736;2023-05-02T01:51:47;16.00;;;4.90;;
78489;SDS011;67776;52.012;4.736;2023-05-02T01:54:15;17.05;;;4.97;;
78489;SDS011;67776;52.012;4.736;2023-05-02T01:56:42;13.00;;;4.87;;
78489;SDS011;67776;52.012;4.736;2023-05-02T01:59:09;19.33;;;5.15;;
78489;SDS011;67776;52.012;4.736;2023-05-02T02:01:37;12.15;;;5.18;;
78489;SDS011;67776;52.012;4.736;2023-05-02T02:04:04;19.20;;;5.60;;
78489;SDS011;67776;52.012;4.736;2023-05-02T02:06:31;15.93;;;4.80;;
78489;SDS011;67776;52.012;4.736;2023-05-02T02:08:57;15.60;;;4.97;;
78489;SDS011;67776;52.012;4.736;2023-05-02T02:11:25;15.93;;;4.37;;
78489;SDS011;67776;52.012;4.736;2023-05-02T02:14:04;16.95;;;4.05;;
78489;SDS011;67776;52.012;4.736;2023-05-02T02:16:31;12.77;;;3.70;;
78489;SDS011;67776;52.012;4.736;2023-05-02T02:18:58;10.60;;;4.10;;
78489;SDS011;67776;52.012;4.736;2023-05-02T02:21:28;13.10;;;3.70;;
78489;SDS011;67776;52.012;4.736;2023-05-02T02:23:56;10.43;;;4.07;;
78489;SDS011;67776;52.012;4.736;2023-05-02T02:26:25;11.50;;;3.70;;
78489;SDS011;67776;52.012;4.736;2023-05-02T02:28:51;9.18;;;3.05;;
78489;SDS011;67776;52.012;4.736;2023-05-02T02:31:16;8.83;;;2.87;;
78489;SDS011;67776;52.012;4.736;2023-05-02T02:33:42;9.57;;;2.43;;
78489;SDS011;67776;52.012;4.736;2023-05-02T02:36:15;14.18;;;4.00;;
78489;SDS011;67776;52.012;4.736;2023-05-02T02:42:04;7.87;;;2.33;;
78489;SDS011;67776;52.012;4.736;2023-05-02T02:47:12;5.13;;;1.70;;
78489;SDS011;67776;52.012;4.736;2023-05-02T02:52:32;11.57;;;2.25;;
78489;SDS011;67776;52.012;4.736;2023-05-02T03:01:03;7.93;;;1.98;;
78489;SDS011;67776;52.012;4.736;2023-05-02T03:03:32;6.05;;;1.50;;
78489;SDS011;67776;52.012;4.736;2023-05-02T03:05:58;7.22;;;1.75;;
78489;SDS011;67776;52.012;4.736;2023-05-02T03:08:24;6.37;;;1.70;;
78489;SDS011;67776;52.012;4.736;2023-05-02T03:10:50;8.38;;;1.80;;
78489;SDS011;67776;52.012;4.736;2023-05-02T03:13:15;7.57;;;1.83;;
78489;SDS011;67776;52.012;4.736;2023-05-02T03:18:12;6.22;;;2.08;;
78489;SDS011;67776;52.012;4.736;2023-05-02T03:20:37;8.90;;;2.10;;
78489;SDS011;67776;52.012;4.736;2023-05-02T03:23:03;6.93;;;1.80;;
78489;SDS011;67776;52.012;4.736;2023-05-02T03:25:28;10.37;;;2.13;;
78489;SDS011;67776;52.012;4.736;2023-05-02T03:27:55;7.10;;;2.00;;
78489;SDS011;67776;52.012;4.736;2023-05-02T03:30:21;8.35;;;2.10;;
78489;SDS011;67776;52.012;4.736;2023-05-02T03:32:46;9.77;;;2.00;;
78489;SDS011;67776;52.012;4.736;2023-05-02T03:35:12;7.80;;;1.63;;
78489;SDS011;67776;52.012;4.736;2023-05-02T03:37:37;9.53;;;1.97;;
78489;SDS011;67776;52.012;4.736;2023-05-02T03:40:02;9.27;;;1.70;;
78489;SDS011;67776;52.012;4.736;2023-05-02T03:42:28;9.65;;;2.05;;
78489;SDS011;67776;52.012;4.736;2023-05-02T03:44:54;12.07;;;2.37;;
78489;SDS011;67776;52.012;4.736;2023-05-02T03:47:19;9.13;;;2.38;;
78489;SDS011;67776;52.012;4.736;2023-05-02T03:49:45;9.37;;;2.33;;
78489;SDS011;67776;52.012;4.736;2023-05-02T03:52:10;10.47;;;2.53;;
78489;SDS011;67776;52.012;4.736;2023-05-02T03:54:36;6.35;;;2.10;;
78489;SDS011;67776;52.012;4.736;2023-05-02T03:57:01;12.20;;;2.23;;
78489;SDS011;67776;52.012;4.736;2023-05-02T03:59:30;5.93;;;1.75;;
78489;SDS011;67776;52.012;4.736;2023-05-02T04:01:56;5.93;;;1.98;;
78489;SDS011;67776;52.012;4.736;2023-05-02T04:04:22;8.53;;;2.13;;
78489;SDS011;67776;52.012;4.736;2023-05-02T04:06:47;8.80;;;1.97;;
78489;SDS011;67776;52.012;4.736;2023-05-02T04:09:12;8.67;;;2.20;;
78489;SDS011;67776;52.012;4.736;2023-05-02T04:11:38;9.47;;;2.50;;
78489;SDS011;67776;52.012;4.736;2023-05-02T04:14:03;6.80;;;2.03;;
78489;SDS011;67776;52.012;4.736;2023-05-02T04:16:28;8.53;;;2.20;;
78489;SDS011;67776;52.012;4.736;2023-05-02T04:18:54;6.65;;;1.88;;
78489;SDS011;67776;52.012;4.736;2023-05-02T04:21:19;5.63;;;1.93;;
78489;SDS011;67776;52.012;4.736;2023-05-02T04:23:45;5.97;;;1.80;;
78489;SDS011;67776;52.012;4.736;2023-05-02T04:26:10;7.87;;;1.90;;
78489;SDS011;67776;52.012;4.736;2023-05-02T04:28:35;6.37;;;1.60;;
78489;SDS011;67776;52.012;4.736;2023-05-02T04:31:01;6.72;;;1.70;;
78489;SDS011;67776;52.012;4.736;2023-05-02T04:33:28;7.37;;;1.60;;
78489;SDS011;67776;52.012;4.736;2023-05-02T04:35:53;8.40;;;1.60;;
78489;SDS011;67776;52.012;4.736;2023-05-02T04:38:18;6.10;;;1.80;;
78489;SDS011;67776;52.012;4.736;2023-05-02T04:40:44;5.53;;;1.40;;
78489;SDS011;67776;52.012;4.736;2023-05-02T04:43:09;7.03;;;1.77;;
78489;SDS011;67776;52.012;4.736;2023-05-02T04:45:35;6.60;;;1.80;;
78489;SDS011;67776;52.012;4.736;2023-05-02T04:48:01;7.87;;;1.70;;
78489;SDS011;67776;52.012;4.736;2023-05-02T04:50:26;7.22;;;1.75;;
78489;SDS011;67776;52.012;4.736;2023-05-02T04:52:52;9.10;;;2.00;;
78489;SDS011;67776;52.012;4.736;2023-05-02T04:55:18;9.75;;;1.50;;
78489;SDS011;67776;52.012;4.736;2023-05-02T04:57:43;8.10;;;1.50;;
78489;SDS011;67776;52.012;4.736;2023-05-02T05:00:09;7.43;;;1.80;;
78489;SDS011;67776;52.012;4.736;2023-05-02T05:02:35;6.85;;;1.60;;
78489;SDS011;67776;52.012;4.736;2023-05-02T05:05:00;13.13;;;2.60;;
78489;SDS011;67776;52.012;4.736;2023-05-02T05:07:26;10.98;;;1.90;;
78489;SDS011;67776;52.012;4.736;2023-05-02T05:09:52;12.33;;;2.53;;
78489;SDS011;67776;52.012;4.736;2023-05-02T05:12:17;8.37;;;1.97;;
78489;SDS011;67776;52.012;4.736;2023-05-02T05:14:43;10.32;;;2.20;;
78489;SDS011;67776;52.012;4.736;2023-05-02T05:17:09;6.20;;;1.93;;
78489;SDS011;67776;52.012;4.736;2023-05-02T05:19:34;11.27;;;2.10;;
78489;SDS011;67776;52.012;4.736;2023-05-02T05:21:59;8.57;;;2.57;;
78489;SDS011;67776;52.012;4.736;2023-05-02T05:24:25;9.37;;;2.00;;
78489;SDS011;67776;52.012;4.736;2023-05-02T05:26:50;11.33;;;2.43;;
78489;SDS011;67776;52.012;4.736;2023-05-02T05:29:15;9.47;;;2.40;;
78489;SDS011;67776;52.012;4.736;2023-05-02T05:31:42;11.35;;;2.40;;
78489;SDS011;67776;52.012;4.736;2023-05-02T05:34:08;11.30;;;2.20;;
78489;SDS011;67776;52.012;4.736;2023-05-02T05:36:33;8.35;;;2.30;;
78489;SDS011;67776;52.012;4.736;2023-05-02T05:38:59;9.00;;;2.10;;
78489;SDS011;67776;52.012;4.736;2023-05-02T05:41:25;10.63;;;2.80;;
78489;SDS011;67776;52.012;4.736;2023-05-02T05:43:50;14.43;;;2.50;;
78489;SDS011;67776;52.012;4.736;2023-05-02T05:46:16;12.00;;;2.70;;
78489;SDS011;67776;52.012;4.736;2023-05-02T05:48:41;9.73;;;2.43;;
78489;SDS011;67776;52.012;4.736;2023-05-02T05:51:06;10.50;;;2.60;;
78489;SDS011;67776;52.012;4.736;2023-05-02T05:53:32;13.03;;;3.10;;
78489;SDS011;67776;52.012;4.736;2023-05-02T05:55:57;12.80;;;2.83;;
78489;SDS011;67776;52.012;4.736;2023-05-02T05:58:23;12.82;;;2.63;;
78489;SDS011;67776;52.012;4.736;2023-05-02T06:00:48;10.00;;;2.60;;
78489;SDS011;67776;52.012;4.736;2023-05-02T06:03:14;9.77;;;2.30;;
78489;SDS011;67776;52.012;4.736;2023-05-02T06:05:40;9.73;;;2.70;;
78489;SDS011;67776;52.012;4.736;2023-05-02T06:08:05;8.63;;;2.53;;
78489;SDS011;67776;52.012;4.736;2023-05-02T06:10:30;8.63;;;2.20;;
78489;SDS011;67776;52.012;4.736;2023-05-02T06:12:56;8.67;;;2.30;;
78489;SDS011;67776;52.012;4.736;2023-05-02T06:15:22;8.30;;;2.35;;
78489;SDS011;67776;52.012;4.736;2023-05-02T06:17:49;9.20;;;2.60;;
78489;SDS011;67776;52.012;4.736;2023-05-02T06:20:15;9.63;;;2.20;;
78489;SDS011;67776;52.012;4.736;2023-05-02T06:22:40;9.83;;;2.73;;
78489;SDS011;67776;52.012;4.736;2023-05-02T06:25:07;8.00;;;2.33;;
78489;SDS011;67776;52.012;4.736;2023-05-02T06:27:32;11.95;;;2.50;;
78489;SDS011;67776;52.012;4.736;2023-05-02T06:29:58;12.57;;;2.90;;
78489;SDS011;67776;52.012;4.736;2023-05-02T06:32:23;8.73;;;2.80;;
78489;SDS011;67776;52.012;4.736;2023-05-02T06:34:49;12.10;;;3.13;;
78489;SDS011;67776;52.012;4.736;2023-05-02T06:37:14;9.37;;;2.77;;
78489;SDS011;67776;52.012;4.736;2023-05-02T06:39:39;9.13;;;2.40;;
78489;SDS011;67776;52.012;4.736;2023-05-02T06:42:05;11.20;;;2.80;;
78489;SDS011;67776;52.012;4.736;2023-05-02T06:44:30;12.57;;;2.70;;
78489;SDS011;67776;52.012;4.736;2023-05-02T06:46:56;12.93;;;2.73;;
78489;SDS011;67776;52.012;4.736;2023-05-02T06:49:21;9.43;;;2.43;;
78489;SDS011;67776;52.012;4.736;2023-05-02T06:51:47;10.52;;;2.15;;
78489;SDS011;67776;52.012;4.736;2023-05-02T06:54:12;10.50;;;2.27;;
78489;SDS011;67776;52.012;4.736;2023-05-02T06:56:39;12.15;;;2.10;;
78489;SDS011;67776;52.012;4.736;2023-05-02T06:59:05;12.50;;;2.97;;
78489;SDS011;67776;52.012;4.736;2023-05-02T07:01:30;10.10;;;2.50;;
78489;SDS011;67776;52.012;4.736;2023-05-02T07:03:55;13.13;;;2.60;;
78489;SDS011;67776;52.012;4.736;2023-05-02T07:06:21;10.10;;;2.73;;
78489;SDS011;67776;52.012;4.736;2023-05-02T07:08:46;11.57;;;2.63;;
78489;SDS011;67776;52.012;4.736;2023-05-02T07:11:12;9.80;;;2.40;;
78489;SDS011;67776;52.012;4.736;2023-05-02T07:13:37;10.20;;;2.60;;
78489;SDS011;67776;52.012;4.736;2023-05-02T07:16:02;11.27;;;2.80;;
78489;SDS011;67776;52.012;4.736;2023-05-02T07:18:28;9.02;;;2.20;;
78489;SDS011;67776;52.012;4.736;2023-05-02T07:20:53;8.57;;;2.47;;
78489;SDS011;67776;52.012;4.736;2023-05-02T07:23:19;8.27;;;2.20;;
78489;SDS011;67776;52.012;4.736;2023-05-02T07:25:46;8.95;;;1.90;;
78489;SDS011;67776;52.012;4.736;2023-05-02T07:28:11;11.88;;;2.33;;
78489;SDS011;67776;52.012;4.736;2023-05-02T07:30:37;9.43;;;2.40;;
78489;SDS011;67776;52.012;4.736;2023-05-02T07:33:02;8.73;;;2.70;;
78489;SDS011;67776;52.012;4.736;2023-05-02T07:35:27;11.43;;;2.50;;
78489;SDS011;67776;52.012;4.736;2023-05-02T07:37:53;10.53;;;2.77;;
78489;SDS011;67776;52.012;4.736;2023-05-02T07:40:18;7.93;;;2.10;;
78489;SDS011;67776;52.012;4.736;2023-05-02T07:42:43;12.70;;;2.50;;
78489;SDS011;67776;52.012;4.736;2023-05-02T07:45:09;10.80;;;2.50;;
78489;SDS011;67776;52.012;4.736;2023-05-02T07:47:35;8.67;;;2.70;;
78489;SDS011;67776;52.012;4.736;2023-05-02T07:50:00;7.13;;;2.40;;
78489;SDS011;67776;52.012;4.736;2023-05-02T07:52:28;8.02;;;1.95;;
78489;SDS011;67776;52.012;4.736;2023-05-02T07:54:54;9.13;;;2.67;;
78489;SDS011;67776;52.012;4.736;2023-05-02T07:57:19;7.63;;;2.53;;
78489;SDS011;67776;52.012;4.736;2023-05-02T07:59:44;11.97;;;2.53;;
78489;SDS011;67776;52.012;4.736;2023-05-02T08:02:10;8.00;;;2.03;;
78489;SDS011;67776;52.012;4.736;2023-05-02T08:04:37;8.38;;;1.83;;
78489;SDS011;67776;52.012;4.736;2023-05-02T08:07:07;7.90;;;2.10;;
78489;SDS011;67776;52.012;4.736;2023-05-02T08:09:32;6.50;;;1.90;;
78489;SDS011;67776;52.012;4.736;2023-05-02T08:11:58;10.60;;;2.20;;
78489;SDS011;67776;52.012;4.736;2023-05-02T08:14:23;8.13;;;2.20;;
78489;SDS011;67776;52.012;4.736;2023-05-02T08:16:48;10.13;;;2.10;;
78489;SDS011;67776;52.012;4.736;2023-05-02T08:19:15;5.75;;;1.75;;
78489;SDS011;67776;52.012;4.736;2023-05-02T08:21:41;6.40;;;1.77;;
78489;SDS011;67776;52.012;4.736;2023-05-02T08:24:06;9.10;;;2.15;;
78489;SDS011;67776;52.012;4.736;2023-05-02T08:26:31;9.47;;;2.03;;
78489;SDS011;67776;52.012;4.736;2023-05-02T08:28:57;8.57;;;1.87;;
78489;SDS011;67776;52.012;4.736;2023-05-02T08:31:22;6.55;;;1.80;;
78489;SDS011;67776;52.012;4.736;2023-05-02T08:33:48;9.00;;;1.90;;
78489;SDS011;67776;52.012;4.736;2023-05-02T08:36:14;5.57;;;1.80;;
78489;SDS011;67776;52.012;4.736;2023-05-02T08:38:41;5.93;;;1.83;;
78489;SDS011;67776;52.012;4.736;2023-05-02T08:41:13;8.07;;;1.80;;
78489;SDS011;67776;52.012;4.736;2023-05-02T08:43:41;6.77;;;1.73;;
78489;SDS011;67776;52.012;4.736;2023-05-02T08:46:08;6.38;;;1.80;;
78489;SDS011;67776;52.012;4.736;2023-05-02T08:48:35;8.70;;;1.90;;
78489;SDS011;67776;52.012;4.736;2023-05-02T08:51:01;6.28;;;1.98;;
78489;SDS011;67776;52.012;4.736;2023-05-02T08:53:28;7.50;;;2.23;;
78489;SDS011;67776;52.012;4.736;2023-05-02T08:56:03;7.68;;;2.20;;
78489;SDS011;67776;52.012;4.736;2023-05-02T08:58:34;7.90;;;2.10;;
78489;SDS011;67776;52.012;4.736;2023-05-02T09:01:03;8.45;;;2.20;;
78489;SDS011;67776;52.012;4.736;2023-05-02T09:03:34;6.63;;;2.28;;
78489;SDS011;67776;52.012;4.736;2023-05-02T09:06:19;6.60;;;1.67;;
78489;SDS011;67776;52.012;4.736;2023-05-02T09:08:47;6.22;;;1.92;;
78489;SDS011;67776;52.012;4.736;2023-05-02T09:11:14;6.25;;;2.10;;
78489;SDS011;67776;52.012;4.736;2023-05-02T09:13:41;8.00;;;2.05;;
78489;SDS011;67776;52.012;4.736;2023-05-02T09:16:09;8.52;;;2.10;;
78489;SDS011;67776;52.012;4.736;2023-05-02T09:18:36;6.93;;;1.80;;
78489;SDS011;67776;52.012;4.736;2023-05-02T09:21:04;6.40;;;2.17;;
78489;SDS011;67776;52.012;4.736;2023-05-02T09:26:14;7.38;;;2.33;;
78489;SDS011;67776;52.012;4.736;2023-05-02T09:28:40;7.40;;;2.17;;
78489;SDS011;67776;52.012;4.736;2023-05-02T09:31:11;7.87;;;2.50;;
78489;SDS011;67776;52.012;4.736;2023-05-02T09:33:41;6.85;;;2.15;;
78489;SDS011;67776;52.012;4.736;2023-05-02T09:36:31;9.65;;;2.13;;
78489;SDS011;67776;52.012;4.736;2023-05-02T09:39:13;8.00;;;2.10;;
78489;SDS011;67776;52.012;4.736;2023-05-02T09:41:41;5.03;;;2.00;;
78489;SDS011;67776;52.012;4.736;2023-05-02T09:44:10;5.67;;;1.80;;
78489;SDS011;67776;52.012;4.736;2023-05-02T09:46:39;6.80;;;1.90;;
78489;SDS011;67776;52.012;4.736;2023-05-02T09:49:06;6.40;;;1.77;;
78489;SDS011;67776;52.012;4.736;2023-05-02T09:51:32;6.47;;;2.25;;
78489;SDS011;67776;52.012;4.736;2023-05-02T09:53:57;6.27;;;2.20;;
78489;SDS011;67776;52.012;4.736;2023-05-02T09:56:30;9.50;;;2.40;;
78489;SDS011;67776;52.012;4.736;2023-05-02T09:59:16;7.47;;;2.78;;
78489;SDS011;67776;52.012;4.736;2023-05-02T10:01:45;8.68;;;3.83;;
78489;SDS011;67776;52.012;4.736;2023-05-02T10:04:20;6.20;;;2.33;;
78489;SDS011;67776;52.012;4.736;2023-05-02T10:06:46;9.30;;;3.87;;
78489;SDS011;67776;52.012;4.736;2023-05-02T10:09:15;8.05;;;2.20;;
78489;SDS011;67776;52.012;4.736;2023-05-02T10:11:41;6.50;;;2.70;;
78489;SDS011;67776;52.012;4.736;2023-05-02T10:14:09;9.00;;;2.45;;
78489;SDS011;67776;52.012;4.736;2023-05-02T10:16:38;6.40;;;2.42;;
78489;SDS011;67776;52.012;4.736;2023-05-02T10:19:17;7.55;;;2.42;;
78489;SDS011;67776;52.012;4.736;2023-05-02T10:21:47;6.20;;;2.35;;
78489;SDS011;67776;52.012;4.736;2023-05-02T10:24:14;7.47;;;2.70;;
78489;SDS011;67776;52.012;4.736;2023-05-02T10:26:41;7.82;;;2.55;;
78489;SDS011;67776;52.012;4.736;2023-05-02T10:29:07;7.22;;;2.42;;
78489;SDS011;67776;52.012;4.736;2023-05-02T10:31:32;8.97;;;2.37;;
78489;SDS011;67776;52.012;4.736;2023-05-02T10:34:01;6.82;;;2.40;;
78489;SDS011;67776;52.012;4.736;2023-05-02T10:36:27;7.80;;;2.28;;
78489;SDS011;67776;52.012;4.736;2023-05-02T10:38:53;6.47;;;2.40;;
78489;SDS011;67776;52.012;4.736;2023-05-02T10:41:23;5.78;;;2.20;;
78489;SDS011;67776;52.012;4.736;2023-05-02T10:43:51;6.72;;;2.40;;
78489;SDS011;67776;52.012;4.736;2023-05-02T10:46:36;6.45;;;2.50;;
78489;SDS011;67776;52.012;4.736;2023-05-02T10:49:10;7.60;;;2.65;;
78489;SDS011;67776;52.012;4.736;2023-05-02T10:51:37;6.40;;;2.40;;
78489;SDS011;67776;52.012;4.736;2023-05-02T10:57:03;8.45;;;2.80;;
78489;SDS011;67776;52.012;4.736;2023-05-02T10:59:35;6.63;;;2.55;;
78489;SDS011;67776;52.012;4.736;2023-05-02T11:05:01;7.70;;;2.70;;
78489;SDS011;67776;52.012;4.736;2023-05-02T11:07:32;8.90;;;2.92;;
78489;SDS011;67776;52.012;4.736;2023-05-02T11:12:45;9.73;;;3.10;;
78489;SDS011;67776;52.012;4.736;2023-05-02T11:20:41;9.77;;;2.78;;
78489;SDS011;67776;52.012;4.736;2023-05-02T11:25:43;9.02;;;3.28;;
78489;SDS011;67776;52.012;4.736;2023-05-02T11:31:00;8.97;;;2.80;;
78489;SDS011;67776;52.012;4.736;2023-05-02T11:33:27;9.07;;;3.00;;
78489;SDS011;67776;52.012;4.736;2023-05-02T11:35:53;8.20;;;3.00;;
78489;SDS011;67776;52.012;4.736;2023-05-02T11:38:20;6.93;;;2.80;;
78489;SDS011;67776;52.012;4.736;2023-05-02T11:40:50;8.10;;;2.97;;
78489;SDS011;67776;52.012;4.736;2023-05-02T11:43:17;8.93;;;3.30;;
78489;SDS011;67776;52.012;4.736;2023-05-02T11:45:43;7.57;;;3.30;;
78489;SDS011;67776;52.012;4.736;2023-05-02T11:48:14;6.70;;;2.88;;
78489;SDS011;67776;52.012;4.736;2023-05-02T11:53:11;9.77;;;3.10;;
78489;SDS011;67776;52.012;4.736;2023-05-02T11:55:43;8.00;;;3.00;;
78489;SDS011;67776;52.012;4.736;2023-05-02T11:58:12;6.47;;;3.03;;
78489;SDS011;67776;52.012;4.736;2023-05-02T12:00:39;9.68;;;3.40;;
78489;SDS011;67776;52.012;4.736;2023-05-02T12:03:05;8.43;;;3.10;;
78489;SDS011;67776;52.012;4.736;2023-05-02T12:05:31;8.90;;;3.30;;
78489;SDS011;67776;52.012;4.736;2023-05-02T12:07:56;7.40;;;3.30;;
78489;SDS011;67776;52.012;4.736;2023-05-02T12:10:22;9.47;;;3.20;;
78489;SDS011;67776;52.012;4.736;2023-05-02T12:12:47;6.70;;;3.05;;
78489;SDS011;67776;52.012;4.736;2023-05-02T12:15:13;7.73;;;3.10;;
78489;SDS011;67776;52.012;4.736;2023-05-02T12:17:40;8.23;;;3.40;;
78489;SDS011;67776;52.012;4.736;2023-05-02T12:20:12;7.32;;;3.03;;
78489;SDS011;67776;52.012;4.736;2023-05-02T12:22:38;7.07;;;3.20;;
78489;SDS011;67776;52.012;4.736;2023-05-02T12:25:04;8.55;;;3.20;;
78489;SDS011;67776;52.012;4.736;2023-05-02T12:27:31;7.30;;;2.90;;
78489;SDS011;67776;52.012;4.736;2023-05-02T12:30:00;10.82;;;3.22;;
78489;SDS011;67776;52.012;4.736;2023-05-02T12:32:29;9.20;;;3.42;;
78489;SDS011;67776;52.012;4.736;2023-05-02T12:35:00;7.90;;;3.08;;
78489;SDS011;67776;52.012;4.736;2023-05-02T12:37:26;8.20;;;3.00;;
78489;SDS011;67776;52.012;4.736;2023-05-02T12:39:53;7.18;;;2.70;;
78489;SDS011;67776;52.012;4.736;2023-05-02T12:42:20;8.57;;;2.90;;
78489;SDS011;67776;52.012;4.736;2023-05-02T12:44:47;7.55;;;3.30;;
78489;SDS011;67776;52.012;4.736;2023-05-02T12:47:16;8.70;;;3.43;;
78489;SDS011;67776;52.012;4.736;2023-05-02T12:52:18;7.15;;;3.20;;
78489;SDS011;67776;52.012;4.736;2023-05-02T12:54:44;9.45;;;3.30;;
78489;SDS011;67776;52.012;4.736;2023-05-02T12:57:22;9.37;;;3.27;;
78489;SDS011;67776;52.012;4.736;2023-05-02T12:59:50;8.32;;;3.42;;
78489;SDS011;67776;52.012;4.736;2023-05-02T13:02:18;8.82;;;3.78;;
78489;SDS011;67776;52.012;4.736;2023-05-02T13:04:44;6.95;;;3.53;;
78489;SDS011;67776;52.012;4.736;2023-05-02T13:07:09;8.20;;;3.60;;
78489;SDS011;67776;52.012;4.736;2023-05-02T13:09:35;10.02;;;3.10;;
78489;SDS011;67776;52.012;4.736;2023-05-02T13:12:01;8.93;;;3.23;;
78489;SDS011;67776;52.012;4.736;2023-05-02T13:14:27;7.63;;;3.20;;
78489;SDS011;67776;52.012;4.736;2023-05-02T13:16:53;7.90;;;3.27;;
78489;SDS011;67776;52.012;4.736;2023-05-02T13:19:19;7.88;;;3.40;;
78489;SDS011;67776;52.012;4.736;2023-05-02T13:21:45;9.35;;;3.72;;
78489;SDS011;67776;52.012;4.736;2023-05-02T13:24:10;8.97;;;3.40;;
78489;SDS011;67776;52.012;4.736;2023-05-02T13:26:37;9.75;;;3.50;;
78489;SDS011;67776;52.012;4.736;2023-05-02T13:29:02;7.13;;;3.10;;
78489;SDS011;67776;52.012;4.736;2023-05-02T13:31:27;7.67;;;3.47;;
78489;SDS011;67776;52.012;4.736;2023-05-02T13:33:53;8.70;;;3.53;;
78489;SDS011;67776;52.012;4.736;2023-05-02T13:36:18;9.90;;;3.50;;
78489;SDS011;67776;52.012;4.736;2023-05-02T13:38:43;7.83;;;3.10;;
78489;SDS011;67776;52.012;4.736;2023-05-02T13:41:09;8.30;;;3.40;;
78489;SDS011;67776;52.012;4.736;2023-05-02T13:43:34;9.63;;;3.53;;
78489;SDS011;67776;52.012;4.736;2023-05-02T13:45:59;9.70;;;3.73;;
78489;SDS011;67776;52.012;4.736;2023-05-02T13:48:25;7.90;;;3.80;;
78489;SDS011;67776;52.012;4.736;2023-05-02T13:50:50;7.28;;;3.00;;
78489;SDS011;67776;52.012;4.736;2023-05-02T13:53:16;9.67;;;4.10;;
78489;SDS011;67776;52.012;4.736;2023-05-02T13:55:41;9.93;;;3.37;;
78489;SDS011;67776;52.012;4.736;2023-05-02T13:58:06;10.47;;;3.40;;
78489;SDS011;67776;52.012;4.736;2023-05-02T14:00:31;6.30;;;3.37;;
78489;SDS011;67776;52.012;4.736;2023-05-02T14:02:57;9.97;;;3.47;;
78489;SDS011;67776;52.012;4.736;2023-05-02T14:05:22;6.93;;;3.40;;
78489;SDS011;67776;52.012;4.736;2023-05-02T14:07:48;9.63;;;3.70;;
78489;SDS011;67776;52.012;4.736;2023-05-02T14:10:13;9.67;;;3.80;;
78489;SDS011;67776;52.012;4.736;2023-05-02T14:12:39;7.60;;;3.50;;
78489;SDS011;67776;52.012;4.736;2023-05-02T14:15:04;7.83;;;3.70;;
78489;SDS011;67776;52.012;4.736;2023-05-02T14:17:30;9.02;;;3.42;;
78489;SDS011;67776;52.012;4.736;2023-05-02T14:19:56;12.77;;;4.32;;
78489;SDS011;67776;52.012;4.736;2023-05-02T14:22:21;7.93;;;3.87;;
78489;SDS011;67776;52.012;4.736;2023-05-02T14:24:46;11.57;;;4.00;;
78489;SDS011;67776;52.012;4.736;2023-05-02T14:27:12;8.90;;;4.00;;
78489;SDS011;67776;52.012;4.736;2023-05-02T14:29:42;8.82;;;3.60;;
78489;SDS011;67776;52.012;4.736;2023-05-02T14:32:08;10.32;;;3.95;;
78489;SDS011;67776;52.012;4.736;2023-05-02T14:34:34;10.80;;;4.23;;
78489;SDS011;67776;52.012;4.736;2023-05-02T14:36:59;11.50;;;4.53;;
78489;SDS011;67776;52.012;4.736;2023-05-02T14:39:25;9.77;;;4.00;;
78489;SDS011;67776;52.012;4.736;2023-05-02T14:41:51;8.20;;;3.33;;
78489;SDS011;67776;52.012;4.736;2023-05-02T14:44:16;13.10;;;3.50;;
78489;SDS011;67776;52.012;4.736;2023-05-02T14:46:42;10.53;;;3.23;;
78489;SDS011;67776;52.012;4.736;2023-05-02T14:49:07;7.77;;;3.20;;
78489;SDS011;67776;52.012;4.736;2023-05-02T14:51:33;8.43;;;3.10;;
78489;SDS011;67776;52.012;4.736;2023-05-02T14:54:00;9.73;;;3.63;;
78489;SDS011;67776;52.012;4.736;2023-05-02T14:56:26;8.68;;;3.22;;
78489;SDS011;67776;52.012;4.736;2023-05-02T14:58:52;8.73;;;3.13;;
78489;SDS011;67776;52.012;4.736;2023-05-02T15:01:18;9.53;;;3.30;;
78489;SDS011;67776;52.012;4.736;2023-05-02T15:03:44;8.18;;;3.22;;
78489;SDS011;67776;52.012;4.736;2023-05-02T15:06:13;8.13;;;3.10;;
78489;SDS011;67776;52.012;4.736;2023-05-02T15:08:39;11.20;;;3.30;;
78489;SDS011;67776;52.012;4.736;2023-05-02T15:11:05;11.68;;;3.10;;
78489;SDS011;67776;52.012;4.736;2023-05-02T15:13:33;9.33;;;3.10;;
78489;SDS011;67776;52.012;4.736;2023-05-02T15:16:01;10.27;;;3.10;;
78489;SDS011;67776;52.012;4.736;2023-05-02T15:18:27;9.43;;;3.00;;
78489;SDS011;67776;52.012;4.736;2023-05-02T15:20:53;8.65;;;3.90;;
78489;SDS011;67776;52.012;4.736;2023-05-02T15:23:18;10.97;;;3.40;;
78489;SDS011;67776;52.012;4.736;2023-05-02T15:25:44;7.47;;;3.40;;
78489;SDS011;67776;52.012;4.736;2023-05-02T15:28:09;9.73;;;3.60;;
78489;SDS011;67776;52.012;4.736;2023-05-02T15:30:34;8.67;;;3.77;;
78489;SDS011;67776;52.012;4.736;2023-05-02T15:33:00;8.73;;;3.00;;
78489;SDS011;67776;52.012;4.736;2023-05-02T15:35:26;8.27;;;3.30;;